Lules, Argentina
Current Conditions -  °F | °C
As of 2:00 AM on Saturday 20 Dec 2014 (Local Time) from SANT Reporting Station
Clear Clear  
Wind Chill: 77°   Ceiling: Unl
Heat Index: 79°   Visibility: 6mi
Dew Point: 68°   Wind: 12mph
Humidity: 74%   Direction: 360°N
Pressure: 29.56"   Gusts: NA
Location:  26.93°S, 65.35°W
Report Text: SANT 200500Z 36010KT CAVOK 25/20 Q1001
Loading
Personal Weather Stations






























Interactive Weather Map New forecast layout! Learn more

10-Day Weather Forecast

Advertisements
Track Severe Weather on mobile